Weather at Jurish Highway Strip H

Public forecast

Using degrees Celsius for public forecast. Weather courtesy of forecast.io.

Closest aviation weather report (METAR) to Jurish Highway Strip H

Closest report is Ben Gurion International Airport, 23.9 nm (44.3 km) WSW. Retrieved 2021/10/27 08:20 UTC (53 minutes ago):

LLBG 270820Z 01006KT 330V040 CAVOK 26/14 Q1017 NOSIG

Closest aviation forecast (TAF) to Jurish Highway Strip H

Closest forecast is Ben Gurion International Airport, 23.9 nm (44.3 km) WSW. Retrieved 2021/10/27 06:09 UTC (3 hours ago):

TAF TAF LLBG 270504Z 2706/2806 VRB03KT CAVOK BECMG 2707/2709 32010KT BECMG 2716/2718 VRB03KT TX27/2710Z TN17/2804Z